sensor_id;sensor_type;location;lat;lon;timestamp;pressure;altitude;pressure_sealevel;temperature;humidity
8280;BME280;8335;42.646;23.380;2022-08-01T00:01:12;94324.38;;;19.99;67.20
8280;BME280;8335;42.646;23.380;2022-08-01T00:03:39;94320.84;;;20.00;67.06
8280;BME280;8335;42.646;23.380;2022-08-01T00:06:07;94320.97;;;19.99;67.27
8280;BME280;8335;42.646;23.380;2022-08-01T00:08:33;94314.97;;;19.98;66.72
8280;BME280;8335;42.646;23.380;2022-08-01T00:11:00;94319.19;;;19.99;66.19
8280;BME280;8335;42.646;23.380;2022-08-01T00:13:27;94320.16;;;19.98;66.01
8280;BME280;8335;42.646;23.380;2022-08-01T00:15:53;94313.22;;;19.99;66.25
8280;BME280;8335;42.646;23.380;2022-08-01T00:18:20;94320.84;;;20.00;65.55
8280;BME280;8335;42.646;23.380;2022-08-01T00:20:47;94322.75;;;19.98;64.59
8280;BME280;8335;42.646;23.380;2022-08-01T00:23:15;94329.97;;;19.95;64.61
8280;BME280;8335;42.646;23.380;2022-08-01T00:25:42;94330.63;;;19.97;64.22
8280;BME280;8335;42.646;23.380;2022-08-01T00:28:09;94335.81;;;19.97;64.34
8280;BME280;8335;42.646;23.380;2022-08-01T00:30:36;94331.44;;;19.97;64.56
8280;BME280;8335;42.646;23.380;2022-08-01T00:33:03;94333.50;;;19.94;64.53
8280;BME280;8335;42.646;23.380;2022-08-01T00:35:29;94331.84;;;19.93;64.85
8280;BME280;8335;42.646;23.380;2022-08-01T00:37:56;94337.72;;;19.85;66.10
8280;BME280;8335;42.646;23.380;2022-08-01T00:40:24;94333.25;;;19.77;68.84
8280;BME280;8335;42.646;23.380;2022-08-01T00:42:51;94338.03;;;19.72;70.70
8280;BME280;8335;42.646;23.380;2022-08-01T00:45:18;94332.31;;;19.69;71.59
8280;BME280;8335;42.646;23.380;2022-08-01T00:47:44;94332.72;;;19.64;72.49
8280;BME280;8335;42.646;23.380;2022-08-01T00:50:11;94327.94;;;19.50;73.84
8280;BME280;8335;42.646;23.380;2022-08-01T00:52:39;94334.59;;;19.43;74.71
8280;BME280;8335;42.646;23.380;2022-08-01T00:55:07;94327.16;;;19.30;75.51
8280;BME280;8335;42.646;23.380;2022-08-01T00:57:36;94327.03;;;19.22;76.13
8280;BME280;8335;42.646;23.380;2022-08-01T01:00:04;94328.53;;;19.15;76.58
8280;BME280;8335;42.646;23.380;2022-08-01T01:02:31;94329.06;;;19.09;76.80
8280;BME280;8335;42.646;23.380;2022-08-01T01:04:58;94327.69;;;19.05;77.74
8280;BME280;8335;42.646;23.380;2022-08-01T01:07:34;94317.06;;;18.98;78.03
8280;BME280;8335;42.646;23.380;2022-08-01T01:10:08;94318.97;;;18.96;78.65
8280;BME280;8335;42.646;23.380;2022-08-01T01:12:44;94316.53;;;18.94;79.45
8280;BME280;8335;42.646;23.380;2022-08-01T01:15:17;94313.69;;;18.88;80.15
8280;BME280;8335;42.646;23.380;2022-08-01T01:17:48;94306.19;;;18.75;80.81
8280;BME280;8335;42.646;23.380;2022-08-01T01:20:16;94312.22;;;18.64;81.75
8280;BME280;8335;42.646;23.380;2022-08-01T01:22:54;94313.47;;;18.60;81.99
8280;BME280;8335;42.646;23.380;2022-08-01T01:25:41;94306.63;;;18.50;82.80
8280;BME280;8335;42.646;23.380;2022-08-01T01:28:19;94305.28;;;18.46;82.84
8280;BME280;8335;42.646;23.380;2022-08-01T01:30:50;94305.28;;;18.46;83.16
8280;BME280;8335;42.646;23.380;2022-08-01T01:33:19;94299.56;;;18.42;83.15
8280;BME280;8335;42.646;23.380;2022-08-01T01:35:48;94297.50;;;18.36;83.47
8280;BME280;8335;42.646;23.380;2022-08-01T01:38:21;94286.78;;;18.31;84.01
8280;BME280;8335;42.646;23.380;2022-08-01T01:40:49;94286.22;;;18.27;83.95
8280;BME280;8335;42.646;23.380;2022-08-01T01:43:17;94295.72;;;18.27;84.32
8280;BME280;8335;42.646;23.380;2022-08-01T01:45:46;94297.75;;;18.23;84.45
8280;BME280;8335;42.646;23.380;2022-08-01T01:48:17;94291.88;;;18.21;84.41
8280;BME280;8335;42.646;23.380;2022-08-01T01:50:48;94281.84;;;18.18;84.14
8280;BME280;8335;42.646;23.380;2022-08-01T01:53:18;94286.47;;;18.14;83.86
8280;BME280;8335;42.646;23.380;2022-08-01T01:55:50;94285.03;;;18.01;84.30
8280;BME280;8335;42.646;23.380;2022-08-01T01:58:19;94284.47;;;17.97;84.74
8280;BME280;8335;42.646;23.380;2022-08-01T02:00:48;94282.28;;;17.93;84.73
8280;BME280;8335;42.646;23.380;2022-08-01T02:03:17;94272.38;;;17.88;84.57
8280;BME280;8335;42.646;23.380;2022-08-01T02:05:45;94275.19;;;17.85;84.81
8280;BME280;8335;42.646;23.380;2022-08-01T02:08:14;94274.50;;;17.83;85.93
8280;BME280;8335;42.646;23.380;2022-08-01T02:10:42;94264.22;;;17.83;86.58
8280;BME280;8335;42.646;23.380;2022-08-01T02:13:32;94266.91;;;17.81;87.30
8280;BME280;8335;42.646;23.380;2022-08-01T02:16:00;94270.94;;;17.74;86.72
8280;BME280;8335;42.646;23.380;2022-08-01T02:18:29;94274.47;;;17.73;85.93
8280;BME280;8335;42.646;23.380;2022-08-01T02:20:57;94272.25;;;17.69;85.19
8280;BME280;8335;42.646;23.380;2022-08-01T02:23:27;94272.38;;;17.67;84.75
8280;BME280;8335;42.646;23.380;2022-08-01T02:25:55;94266.78;;;17.62;84.61
8280;BME280;8335;42.646;23.380;2022-08-01T02:28:28;94268.00;;;17.58;83.96
8280;BME280;8335;42.646;23.380;2022-08-01T02:31:00;94267.59;;;17.42;83.84
8280;BME280;8335;42.646;23.380;2022-08-01T02:33:34;94263.09;;;17.34;83.57
8280;BME280;8335;42.646;23.380;2022-08-01T02:36:03;94269.44;;;17.30;83.05
8280;BME280;8335;42.646;23.380;2022-08-01T02:38:33;94271.75;;;17.33;82.72
8280;BME280;8335;42.646;23.380;2022-08-01T02:41:05;94271.38;;;17.38;81.75
8280;BME280;8335;42.646;23.380;2022-08-01T02:43:34;94264.22;;;17.41;82.54
8280;BME280;8335;42.646;23.380;2022-08-01T02:46:04;94262.03;;;17.37;81.73
8280;BME280;8335;42.646;23.380;2022-08-01T02:48:36;94262.28;;;17.33;81.37
8280;BME280;8335;42.646;23.380;2022-08-01T02:51:06;94267.53;;;17.32;82.15
8280;BME280;8335;42.646;23.380;2022-08-01T02:53:36;94262.66;;;17.29;82.94
8280;BME280;8335;42.646;23.380;2022-08-01T02:56:05;94260.31;;;17.26;83.53
8280;BME280;8335;42.646;23.380;2022-08-01T02:58:33;94260.31;;;17.26;83.32
8280;BME280;8335;42.646;23.380;2022-08-01T03:01:02;94262.91;;;17.26;83.64
8280;BME280;8335;42.646;23.380;2022-08-01T03:03:30;94261.13;;;17.26;82.82
8280;BME280;8335;42.646;23.380;2022-08-01T03:05:59;94264.34;;;17.19;80.70
8280;BME280;8335;42.646;23.380;2022-08-01T03:08:28;94270.78;;;17.13;79.70
8280;BME280;8335;42.646;23.380;2022-08-01T03:10:57;94274.44;;;17.11;79.14
8280;BME280;8335;42.646;23.380;2022-08-01T03:13:27;94273.50;;;17.12;79.76
8280;BME280;8335;42.646;23.380;2022-08-01T03:15:57;94270.91;;;17.12;79.92
8280;BME280;8335;42.646;23.380;2022-08-01T03:18:25;94268.13;;;17.15;80.37
8280;BME280;8335;42.646;23.380;2022-08-01T03:20:55;94269.63;;;17.17;80.71
8280;BME280;8335;42.646;23.380;2022-08-01T03:23:24;94270.44;;;17.18;81.93
8280;BME280;8335;42.646;23.380;2022-08-01T03:25:53;94270.88;;;17.23;81.68
8280;BME280;8335;42.646;23.380;2022-08-01T03:28:22;94267.22;;;17.25;81.39
8280;BME280;8335;42.646;23.380;2022-08-01T03:30:49;94272.63;;;17.22;80.74
8280;BME280;8335;42.646;23.380;2022-08-01T03:33:17;94276.38;;;17.18;80.98
8280;BME280;8335;42.646;23.380;2022-08-01T03:35:47;94278.59;;;17.23;80.83
8280;BME280;8335;42.646;23.380;2022-08-01T03:38:18;94277.34;;;17.38;81.66
8280;BME280;8335;42.646;23.380;2022-08-01T03:40:48;94278.47;;;17.66;80.97
8280;BME280;8335;42.646;23.380;2022-08-01T03:43:20;94288.47;;;18.11;79.13
8280;BME280;8335;42.646;23.380;2022-08-01T03:45:50;94289.47;;;18.69;76.76
8280;BME280;8335;42.646;23.380;2022-08-01T03:48:19;94287.47;;;19.31;73.98
8280;BME280;8335;42.646;23.380;2022-08-01T03:50:50;94297.78;;;19.70;69.86
8280;BME280;8335;42.646;23.380;2022-08-01T03:53:20;94293.28;;;19.82;65.09
8280;BME280;8335;42.646;23.380;2022-08-01T03:55:50;94290.47;;;20.12;63.36
8280;BME280;8335;42.646;23.380;2022-08-01T03:58:19;94291.41;;;20.76;61.39
8280;BME280;8335;42.646;23.380;2022-08-01T04:00:47;94297.25;;;21.13;60.11
8280;BME280;8335;42.646;23.380;2022-08-01T04:03:14;94291.91;;;21.68;58.33
8280;BME280;8335;42.646;23.380;2022-08-01T04:05:42;94298.09;;;22.19;55.00
8280;BME280;8335;42.646;23.380;2022-08-01T04:08:18;94297.03;;;22.80;52.85
8280;BME280;8335;42.646;23.380;2022-08-01T04:10:45;94299.25;;;23.34;51.55
8280;BME280;8335;42.646;23.380;2022-08-01T04:13:13;94291.97;;;23.95;50.31
8280;BME280;8335;42.646;23.380;2022-08-01T04:15:40;94312.13;;;24.56;48.30
8280;BME280;8335;42.646;23.380;2022-08-01T04:18:06;94310.50;;;25.25;47.31
8280;BME280;8335;42.646;23.380;2022-08-01T04:20:33;94313.72;;;25.96;45.71
8280;BME280;8335;42.646;23.380;2022-08-01T04:23:00;94312.34;;;26.68;43.16
8280;BME280;8335;42.646;23.380;2022-08-01T04:25:31;94318.59;;;27.39;41.30
8280;BME280;8335;42.646;23.380;2022-08-01T04:28:01;94315.63;;;28.13;40.53
8280;BME280;8335;42.646;23.380;2022-08-01T04:30:32;94320.88;;;28.82;39.22
8280;BME280;8335;42.646;23.380;2022-08-01T04:33:02;94318.88;;;29.45;37.46
8280;BME280;8335;42.646;23.380;2022-08-01T04:35:33;94324.00;;;30.00;37.44
8280;BME280;8335;42.646;23.380;2022-08-01T04:38:01;94318.72;;;30.46;36.70
8280;BME280;8335;42.646;23.380;2022-08-01T04:40:29;94325.84;;;31.04;36.05
8280;BME280;8335;42.646;23.380;2022-08-01T04:42:56;94321.09;;;31.64;35.73
8280;BME280;8335;42.646;23.380;2022-08-01T04:45:23;94319.31;;;32.39;34.05
8280;BME280;8335;42.646;23.380;2022-08-01T04:47:52;94315.72;;;33.25;32.65
8280;BME280;8335;42.646;23.380;2022-08-01T04:50:19;94331.72;;;33.60;30.67
8280;BME280;8335;42.646;23.380;2022-08-01T04:52:47;94320.81;;;32.90;30.83
8280;BME280;8335;42.646;23.380;2022-08-01T04:55:14;94330.78;;;33.06;30.28
8280;BME280;8335;42.646;23.380;2022-08-01T04:57:44;94327.09;;;33.07;30.88
8280;BME280;8335;42.646;23.380;2022-08-01T05:00:12;94321.25;;;33.96;29.51
8280;BME280;8335;42.646;23.380;2022-08-01T05:02:39;94324.22;;;35.16;28.82
8280;BME280;8335;42.646;23.380;2022-08-01T05:05:08;94318.69;;;36.25;27.71
8280;BME280;8335;42.646;23.380;2022-08-01T05:07:36;94320.16;;;37.10;26.37
8280;BME280;8335;42.646;23.380;2022-08-01T05:10:03;94327.53;;;37.79;25.17
8280;BME280;8335;42.646;23.380;2022-08-01T05:12:30;94329.59;;;37.99;25.33
8280;BME280;8335;42.646;23.380;2022-08-01T05:14:58;94330.09;;;38.28;24.38
8280;BME280;8335;42.646;23.380;2022-08-01T05:17:24;94328.25;;;38.28;24.12
8280;BME280;8335;42.646;23.380;2022-08-01T05:19:51;94324.66;;;38.50;23.65
8280;BME280;8335;42.646;23.380;2022-08-01T05:22:19;94327.34;;;38.55;23.56
8280;BME280;8335;42.646;23.380;2022-08-01T05:24:47;94329.63;;;38.78;22.49
8280;BME280;8335;42.646;23.380;2022-08-01T05:27:14;94328.47;;;38.59;22.67
8280;BME280;8335;42.646;23.380;2022-08-01T05:29:41;94325.94;;;38.37;22.73
8280;BME280;8335;42.646;23.380;2022-08-01T05:32:07;94324.41;;;37.82;23.93
8280;BME280;8335;42.646;23.380;2022-08-01T05:34:35;94318.78;;;37.30;24.15
8280;BME280;8335;42.646;23.380;2022-08-01T05:37:02;94314.06;;;37.10;24.21
8280;BME280;8335;42.646;23.380;2022-08-01T05:39:30;94313.28;;;37.14;24.12
8280;BME280;8335;42.646;23.380;2022-08-01T05:41:57;94310.81;;;37.08;24.10
8280;BME280;8335;42.646;23.380;2022-08-01T05:44:23;94320.63;;;37.07;24.66
8280;BME280;8335;42.646;23.380;2022-08-01T05:46:50;94317.09;;;36.80;24.80
8280;BME280;8335;42.646;23.380;2022-08-01T05:49:17;94327.03;;;36.68;23.96
8280;BME280;8335;42.646;23.380;2022-08-01T05:51:43;94327.34;;;37.15;23.99
8280;BME280;8335;42.646;23.380;2022-08-01T05:54:10;94323.47;;;37.01;24.22
8280;BME280;8335;42.646;23.380;2022-08-01T05:56:38;94334.78;;;37.35;23.31
8280;BME280;8335;42.646;23.380;2022-08-01T05:59:05;94331.34;;;37.34;22.81
8280;BME280;8335;42.646;23.380;2022-08-01T06:01:32;94332.78;;;36.81;23.92
8280;BME280;8335;42.646;23.380;2022-08-01T06:03:59;94324.22;;;37.18;22.65
8280;BME280;8335;42.646;23.380;2022-08-01T06:06:25;94328.81;;;37.23;22.89
8280;BME280;8335;42.646;23.380;2022-08-01T06:08:52;94326.34;;;37.16;23.10
8280;BME280;8335;42.646;23.380;2022-08-01T06:11:19;94329.53;;;36.96;23.24
8280;BME280;8335;42.646;23.380;2022-08-01T06:13:47;94332.25;;;37.23;23.48
8280;BME280;8335;42.646;23.380;2022-08-01T06:16:14;94332.47;;;37.65;22.73
8280;BME280;8335;42.646;23.380;2022-08-01T06:18:41;94344.53;;;37.51;22.43
8280;BME280;8335;42.646;23.380;2022-08-01T06:21:07;94339.16;;;37.24;22.12
8280;BME280;8335;42.646;23.380;2022-08-01T06:23:34;94335.72;;;36.63;22.56
8280;BME280;8335;42.646;23.380;2022-08-01T06:26:01;94340.38;;;36.73;22.25
8280;BME280;8335;42.646;23.380;2022-08-01T06:28:27;94329.81;;;36.39;22.29
8280;BME280;8335;42.646;23.380;2022-08-01T06:30:56;94327.66;;;35.74;23.24
8280;BME280;8335;42.646;23.380;2022-08-01T06:33:23;94326.00;;;35.56;23.23
8280;BME280;8335;42.646;23.380;2022-08-01T06:35:50;94332.09;;;35.28;23.37
8280;BME280;8335;42.646;23.380;2022-08-01T06:38:17;94313.38;;;34.54;24.81
8280;BME280;8335;42.646;23.380;2022-08-01T06:40:44;94309.28;;;33.93;25.49
8280;BME280;8335;42.646;23.380;2022-08-01T06:43:10;94310.94;;;33.94;25.43
8280;BME280;8335;42.646;23.380;2022-08-01T06:45:37;94311.66;;;34.60;24.98
8280;BME280;8335;42.646;23.380;2022-08-01T06:48:06;94304.56;;;35.00;24.60
8280;BME280;8335;42.646;23.380;2022-08-01T06:50:32;94307.13;;;34.72;24.97
8280;BME280;8335;42.646;23.380;2022-08-01T06:53:01;94314.78;;;35.09;24.40
8280;BME280;8335;42.646;23.380;2022-08-01T06:55:28;94295.25;;;34.86;24.51
8280;BME280;8335;42.646;23.380;2022-08-01T06:57:54;94302.75;;;34.78;24.81
8280;BME280;8335;42.646;23.380;2022-08-01T07:00:23;94303.31;;;35.32;24.86
8280;BME280;8335;42.646;23.380;2022-08-01T07:02:51;94299.38;;;35.46;24.41
8280;BME280;8335;42.646;23.380;2022-08-01T07:05:19;94294.50;;;35.14;24.31
8280;BME280;8335;42.646;23.380;2022-08-01T07:07:46;94301.03;;;35.23;23.88
8280;BME280;8335;42.646;23.380;2022-08-01T07:10:13;94286.84;;;34.89;24.42
8280;BME280;8335;42.646;23.380;2022-08-01T07:12:39;94283.09;;;34.73;24.70
8280;BME280;8335;42.646;23.380;2022-08-01T07:15:08;94296.47;;;34.67;25.03
8280;BME280;8335;42.646;23.380;2022-08-01T07:17:37;94302.66;;;34.72;25.02
8280;BME280;8335;42.646;23.380;2022-08-01T07:20:06;94301.50;;;34.57;25.47
8280;BME280;8335;42.646;23.380;2022-08-01T07:22:34;94281.41;;;34.56;25.85
8280;BME280;8335;42.646;23.380;2022-08-01T07:25:02;94302.75;;;35.01;25.13
8280;BME280;8335;42.646;23.380;2022-08-01T07:27:29;94295.66;;;35.18;25.89
8280;BME280;8335;42.646;23.380;2022-08-01T07:29:56;94291.41;;;35.17;25.24
8280;BME280;8335;42.646;23.380;2022-08-01T07:32:23;94299.13;;;35.47;25.40
8280;BME280;8335;42.646;23.380;2022-08-01T07:34:49;94300.63;;;36.05;24.42
8280;BME280;8335;42.646;23.380;2022-08-01T07:37:16;94296.06;;;36.01;24.26
8280;BME280;8335;42.646;23.380;2022-08-01T07:39:44;94306.66;;;36.18;24.45
8280;BME280;8335;42.646;23.380;2022-08-01T07:42:11;94300.34;;;36.57;23.86
8280;BME280;8335;42.646;23.380;2022-08-01T07:44:38;94297.75;;;36.62;24.23
8280;BME280;8335;42.646;23.380;2022-08-01T07:47:05;94283.50;;;36.30;24.41
8280;BME280;8335;42.646;23.380;2022-08-01T07:49:32;94310.78;;;35.63;24.26
8280;BME280;8335;42.646;23.380;2022-08-01T07:51:59;94296.47;;;35.47;24.31
8280;BME280;8335;42.646;23.380;2022-08-01T07:54:25;94297.81;;;35.21;25.06
8280;BME280;8335;42.646;23.380;2022-08-01T07:56:54;94289.50;;;35.29;25.07
8280;BME280;8335;42.646;23.380;2022-08-01T07:59:21;94301.13;;;35.28;24.48
8280;BME280;8335;42.646;23.380;2022-08-01T08:01:49;94295.63;;;35.59;24.29
8280;BME280;8335;42.646;23.380;2022-08-01T08:04:16;94308.47;;;35.38;24.66
8280;BME280;8335;42.646;23.380;2022-08-01T08:06:42;94304.44;;;35.36;24.56
8280;BME280;8335;42.646;23.380;2022-08-01T08:09:10;94307.66;;;35.38;24.43
8280;BME280;8335;42.646;23.380;2022-08-01T08:11:36;94296.09;;;34.75;25.66
8280;BME280;8335;42.646;23.380;2022-08-01T08:14:04;94297.53;;;35.06;25.46
8280;BME280;8335;42.646;23.380;2022-08-01T08:16:31;94296.59;;;35.12;25.10
8280;BME280;8335;42.646;23.380;2022-08-01T08:18:58;94317.09;;;35.05;25.19
8280;BME280;8335;42.646;23.380;2022-08-01T08:21:25;94306.00;;;35.48;24.98
8280;BME280;8335;42.646;23.380;2022-08-01T08:23:52;94311.38;;;35.25;24.96
8280;BME280;8335;42.646;23.380;2022-08-01T08:26:36;94299.59;;;35.44;25.24
8280;BME280;8335;42.646;23.380;2022-08-01T08:29:05;94307.56;;;35.33;24.61
8280;BME280;8335;42.646;23.380;2022-08-01T08:31:32;94307.97;;;35.13;25.13
8280;BME280;8335;42.646;23.380;2022-08-01T08:33:58;94313.97;;;35.48;24.85
8280;BME280;8335;42.646;23.380;2022-08-01T08:36:25;94308.47;;;35.67;24.30
8280;BME280;8335;42.646;23.380;2022-08-01T08:38:52;94311.81;;;35.45;24.42
8280;BME280;8335;42.646;23.380;2022-08-01T08:41:19;94301.94;;;35.57;24.31
8280;BME280;8335;42.646;23.380;2022-08-01T08:43:45;94317.28;;;36.01;24.01
8280;BME280;8335;42.646;23.380;2022-08-01T08:46:14;94312.63;;;36.08;24.29
8280;BME280;8335;42.646;23.380;2022-08-01T08:48:41;94309.31;;;36.18;24.17
8280;BME280;8335;42.646;23.380;2022-08-01T08:51:10;94312.34;;;35.93;24.59
8280;BME280;8335;42.646;23.380;2022-08-01T08:53:38;94312.38;;;35.36;24.04
8280;BME280;8335;42.646;23.380;2022-08-01T08:56:10;94314.50;;;35.50;24.30
8280;BME280;8335;42.646;23.380;2022-08-01T08:58:38;94300.44;;;35.21;24.39
8280;BME280;8335;42.646;23.380;2022-08-01T09:01:05;94297.59;;;35.23;24.73
8280;BME280;8335;42.646;23.380;2022-08-01T09:03:33;94301.88;;;35.69;24.43
8280;BME280;8335;42.646;23.380;2022-08-01T09:06:00;94297.34;;;36.15;24.48
8280;BME280;8335;42.646;23.380;2022-08-01T09:08:27;94307.69;;;36.33;23.77
8280;BME280;8335;42.646;23.380;2022-08-01T09:10:54;94290.84;;;36.06;23.77
8280;BME280;8335;42.646;23.380;2022-08-01T09:13:21;94295.34;;;36.05;23.56
8280;BME280;8335;42.646;23.380;2022-08-01T09:15:49;94291.31;;;36.03;23.79
8280;BME280;8335;42.646;23.380;2022-08-01T09:18:29;94299.44;;;36.30;22.75
8280;BME280;8335;42.646;23.380;2022-08-01T09:21:13;94291.31;;;36.03;22.54
8280;BME280;8335;42.646;23.380;2022-08-01T09:23:43;94293.78;;;35.59;22.61
8280;BME280;8335;42.646;23.380;2022-08-01T09:26:11;94289.78;;;35.73;22.96
8280;BME280;8335;42.646;23.380;2022-08-01T09:28:38;94287.84;;;35.69;23.34
8280;BME280;8335;42.646;23.380;2022-08-01T09:31:07;94283.25;;;35.64;23.86
8280;BME280;8335;42.646;23.380;2022-08-01T09:33:48;94277.44;;;35.96;23.46
8280;BME280;8335;42.646;23.380;2022-08-01T09:36:17;94288.81;;;36.47;22.38
8280;BME280;8335;42.646;23.380;2022-08-01T09:38:45;94286.00;;;36.20;22.66
8280;BME280;8335;42.646;23.380;2022-08-01T09:41:13;94283.28;;;35.81;23.03
8280;BME280;8335;42.646;23.380;2022-08-01T09:43:47;94282.38;;;35.75;22.74
8280;BME280;8335;42.646;23.380;2022-08-01T09:46:14;94276.50;;;35.56;23.34
8280;BME280;8335;42.646;23.380;2022-08-01T09:48:55;94278.03;;;35.69;23.12
8280;BME280;8335;42.646;23.380;2022-08-01T09:51:29;94271.69;;;35.25;23.70
8280;BME280;8335;42.646;23.380;2022-08-01T09:53:57;94269.78;;;34.68;24.19
8280;BME280;8335;42.646;23.380;2022-08-01T09:56:25;94258.09;;;34.41;24.43
8280;BME280;8335;42.646;23.380;2022-08-01T09:58:54;94275.22;;;35.02;24.43
8280;BME280;8335;42.646;23.380;2022-08-01T10:01:21;94271.81;;;35.18;24.28
8280;BME280;8335;42.646;23.380;2022-08-01T10:04:04;94279.91;;;35.12;23.72
8280;BME280;8335;42.646;23.380;2022-08-01T10:06:32;94276.03;;;35.31;24.23
8280;BME280;8335;42.646;23.380;2022-08-01T10:09:01;94270.00;;;35.07;25.65
8280;BME280;8335;42.646;23.380;2022-08-01T10:11:28;94279.00;;;34.54;25.16
8280;BME280;8335;42.646;23.380;2022-08-01T10:13:57;94266.44;;;34.61;25.48
8280;BME280;8335;42.646;23.380;2022-08-01T10:16:26;94268.16;;;34.67;25.14
8280;BME280;8335;42.646;23.380;2022-08-01T10:18:54;94268.97;;;34.68;25.52
8280;BME280;8335;42.646;23.380;2022-08-01T10:21:23;94255.75;;;34.56;25.30
8280;BME280;8335;42.646;23.380;2022-08-01T10:23:54;94250.72;;;34.43;25.69
8280;BME280;8335;42.646;23.380;2022-08-01T10:26:21;94245.88;;;34.40;25.85
8280;BME280;8335;42.646;23.380;2022-08-01T10:28:52;94244.22;;;33.57;26.37
8280;BME280;8335;42.646;23.380;2022-08-01T10:31:20;94244.94;;;32.74;26.39
8280;BME280;8335;42.646;23.380;2022-08-01T10:33:48;94249.47;;;32.67;27.11
8280;BME280;8335;42.646;23.380;2022-08-01T10:36:17;94245.03;;;32.79;27.57
8280;BME280;8335;42.646;23.380;2022-08-01T10:38:45;94246.03;;;32.66;27.94
8280;BME280;8335;42.646;23.380;2022-08-01T10:41:14;94242.72;;;32.89;27.30
8280;BME280;8335;42.646;23.380;2022-08-01T10:43:42;94243.66;;;32.76;28.08
8280;BME280;8335;42.646;23.380;2022-08-01T10:46:09;94238.16;;;32.78;27.91
8280;BME280;8335;42.646;23.380;2022-08-01T10:48:43;94240.81;;;32.78;28.42
8280;BME280;8335;42.646;23.380;2022-08-01T10:51:12;94243.09;;;32.74;28.41
8280;BME280;8335;42.646;23.380;2022-08-01T10:53:46;94239.63;;;32.44;29.20
8280;BME280;8335;42.646;23.380;2022-08-01T10:56:14;94233.22;;;32.51;28.73
8280;BME280;8335;42.646;23.380;2022-08-01T10:58:43;94228.13;;;31.95;29.28
8280;BME280;8335;42.646;23.380;2022-08-01T11:01:20;94228.16;;;31.38;29.65
8280;BME280;8335;42.646;23.380;2022-08-01T11:04:06;94227.25;;;30.81;29.80
8280;BME280;8335;42.646;23.380;2022-08-01T11:06:42;94223.94;;;30.48;31.19
8280;BME280;8335;42.646;23.380;2022-08-01T11:09:24;94227.03;;;30.31;32.41
8280;BME280;8335;42.646;23.380;2022-08-01T11:12:03;94214.25;;;30.35;31.66
8280;BME280;8335;42.646;23.380;2022-08-01T11:14:34;94217.78;;;30.02;32.63
8280;BME280;8335;42.646;23.380;2022-08-01T11:17:31;94213.94;;;29.92;32.05
8280;BME280;8335;42.646;23.380;2022-08-01T11:20:10;94205.28;;;29.65;33.19
8280;BME280;8335;42.646;23.380;2022-08-01T11:26:20;94197.19;;;29.26;33.60
8280;BME280;8335;42.646;23.380;2022-08-01T11:29:17;94206.06;;;29.12;33.82
8280;BME280;8335;42.646;23.380;2022-08-01T11:31:44;94209.69;;;29.04;35.16
8280;BME280;8335;42.646;23.380;2022-08-01T11:34:11;94204.34;;;28.85;34.47
8280;BME280;8335;42.646;23.380;2022-08-01T11:36:38;94198.91;;;28.86;34.41
8280;BME280;8335;42.646;23.380;2022-08-01T11:39:15;94197.09;;;28.80;34.21
8280;BME280;8335;42.646;23.380;2022-08-01T11:41:45;94206.34;;;28.76;34.88
8280;BME280;8335;42.646;23.380;2022-08-01T11:44:14;94196.69;;;28.76;34.99
8280;BME280;8335;42.646;23.380;2022-08-01T11:46:52;94196.63;;;28.63;35.40
8280;BME280;8335;42.646;23.380;2022-08-01T11:49:34;94203.06;;;28.54;35.01
8280;BME280;8335;42.646;23.380;2022-08-01T11:52:11;94201.41;;;28.40;36.37
8280;BME280;8335;42.646;23.380;2022-08-01T11:54:39;94196.16;;;28.40;35.68
8280;BME280;8335;42.646;23.380;2022-08-01T11:57:08;94192.94;;;28.38;36.11
8280;BME280;8335;42.646;23.380;2022-08-01T11:59:37;94197.19;;;28.45;36.25
8280;BME280;8335;42.646;23.380;2022-08-01T12:02:15;94194.78;;;28.44;36.17
8280;BME280;8335;42.646;23.380;2022-08-01T12:04:54;94206.13;;;28.58;36.36
8280;BME280;8335;42.646;23.380;2022-08-01T12:07:21;94202.50;;;28.59;36.11
8280;BME280;8335;42.646;23.380;2022-08-01T12:09:57;94194.59;;;28.52;36.32
8280;BME280;8335;42.646;23.380;2022-08-01T12:12:24;94194.00;;;28.57;36.60
8280;BME280;8335;42.646;23.380;2022-08-01T12:14:53;94210.16;;;28.60;35.31
8280;BME280;8335;42.646;23.380;2022-08-01T12:17:29;94188.38;;;28.60;36.15
8280;BME280;8335;42.646;23.380;2022-08-01T12:19:56;94199.66;;;28.60;35.67
8280;BME280;8335;42.646;23.380;2022-08-01T12:22:23;94199.63;;;28.47;36.26
8280;BME280;8335;42.646;23.380;2022-08-01T12:24:51;94197.41;;;28.57;36.86
8280;BME280;8335;42.646;23.380;2022-08-01T12:27:25;94182.94;;;28.61;36.21
8280;BME280;8335;42.646;23.380;2022-08-01T12:29:53;94197.81;;;28.54;36.62
8280;BME280;8335;42.646;23.380;2022-08-01T12:32:25;94194.81;;;28.50;36.38
8280;BME280;8335;42.646;23.380;2022-08-01T12:34:55;94201.06;;;28.56;36.08
8280;BME280;8335;42.646;23.380;2022-08-01T12:37:22;94202.28;;;28.60;36.71
8280;BME280;8335;42.646;23.380;2022-08-01T12:39:49;94190.78;;;28.55;36.72
8280;BME280;8335;42.646;23.380;2022-08-01T12:42:16;94185.31;;;28.49;36.78
8280;BME280;8335;42.646;23.380;2022-08-01T12:44:45;94183.69;;;28.48;36.22
8280;BME280;8335;42.646;23.380;2022-08-01T12:47:13;94185.50;;;28.48;36.85
8280;BME280;8335;42.646;23.380;2022-08-01T12:49:43;94188.75;;;28.43;36.46
8280;BME280;8335;42.646;23.380;2022-08-01T12:52:12;94186.66;;;28.32;36.88
8280;BME280;8335;42.646;23.380;2022-08-01T12:55:01;94182.47;;;28.38;36.66
8280;BME280;8335;42.646;23.380;2022-08-01T12:57:29;94178.41;;;28.35;37.85
8280;BME280;8335;42.646;23.380;2022-08-01T13:00:07;94182.44;;;28.31;36.50
8280;BME280;8335;42.646;23.380;2022-08-01T13:02:35;94172.78;;;28.32;36.81
8280;BME280;8335;42.646;23.380;2022-08-01T13:05:03;94176.56;;;28.29;36.79
8280;BME280;8335;42.646;23.380;2022-08-01T13:07:42;94180.56;;;28.25;36.44
8280;BME280;8335;42.646;23.380;2022-08-01T13:10:10;94178.22;;;28.30;35.65
8280;BME280;8335;42.646;23.380;2022-08-01T13:12:38;94178.22;;;28.30;36.84
8280;BME280;8335;42.646;23.380;2022-08-01T13:15:28;94177.38;;;28.30;36.74
8280;BME280;8335;42.646;23.380;2022-08-01T13:17:58;94178.22;;;28.30;36.85
8280;BME280;8335;42.646;23.380;2022-08-01T13:20:27;94172.78;;;28.38;37.05
8280;BME280;8335;42.646;23.380;2022-08-01T13:23:09;94164.50;;;28.35;36.39
8280;BME280;8335;42.646;23.380;2022-08-01T13:25:50;94166.31;;;28.34;36.32